createdAt,value
2023-12-27T00:04:30.509Z,11.99
2023-12-27T00:09:27.079Z,11.89
2023-12-27T00:14:23.599Z,11.98
2023-12-27T00:19:21.058Z,11.96
2023-12-27T00:24:17.780Z,12.27
2023-12-27T00:29:14.349Z,12.12
2023-12-27T00:34:11.090Z,12.05
2023-12-27T00:39:10.896Z,11.84
2023-12-27T00:44:07.478Z,12.07
2023-12-27T00:49:04.200Z,11.79
2023-12-27T00:54:01.004Z,11.83
2023-12-27T00:58:58.637Z,11.78
2023-12-27T01:03:55.369Z,11.67
2023-12-27T01:08:52.058Z,11.88
2023-12-27T01:13:49.029Z,11.71
2023-12-27T01:18:46.293Z,11.86
2023-12-27T01:23:42.930Z,11.91
2023-12-27T01:28:39.503Z,11.90
2023-12-27T01:33:36.317Z,11.66
2023-12-27T01:38:33.587Z,11.75
2023-12-27T01:43:30.223Z,11.71
2023-12-27T01:48:26.875Z,11.52
2023-12-27T01:53:24.639Z,11.39
2023-12-27T01:58:22.722Z,11.30
2023-12-27T02:03:22.398Z,11.22
2023-12-27T02:08:20.863Z,11.20
2023-12-27T02:13:20.265Z,11.33
2023-12-27T02:18:17.715Z,11.28
2023-12-27T02:23:19.079Z,11.41
2023-12-27T02:28:16.355Z,11.31
2023-12-27T02:33:13.141Z,11.27
2023-12-27T02:38:09.836Z,11.22
2023-12-27T02:43:06.405Z,11.26
2023-12-27T02:48:05.412Z,11.35
2023-12-27T02:53:02.168Z,11.38
2023-12-27T02:57:58.808Z,11.37
2023-12-27T03:02:55.406Z,11.11
2023-12-27T03:07:52.748Z,11.08
2023-12-27T03:12:49.293Z,11.24
2023-12-27T03:17:45.972Z,11.23
2023-12-27T03:22:42.554Z,11.52
2023-12-27T03:27:40.110Z,11.70
2023-12-27T03:32:36.779Z,11.53
2023-12-27T03:37:33.378Z,11.47
2023-12-27T03:42:30.430Z,11.50
2023-12-27T03:47:27.688Z,11.50
2023-12-27T03:52:24.556Z,11.61
2023-12-27T03:57:22.043Z,11.45
2023-12-27T04:02:18.615Z,11.57
2023-12-27T04:07:15.869Z,11.51
2023-12-27T04:12:12.545Z,11.59
2023-12-27T04:17:09.281Z,11.41
2023-12-27T04:22:06.292Z,11.22
2023-12-27T04:27:03.784Z,11.29
2023-12-27T04:32:00.412Z,11.39
2023-12-27T04:36:56.973Z,11.44
2023-12-27T04:41:53.489Z,11.50
2023-12-27T04:46:50.724Z,11.51
2023-12-27T04:51:47.357Z,11.27
2023-12-27T04:56:43.887Z,11.23
2023-12-27T05:01:40.522Z,11.11
2023-12-27T05:06:37.777Z,10.87
2023-12-27T05:11:34.556Z,10.76
2023-12-27T05:16:31.083Z,10.94
2023-12-27T05:21:27.687Z,11.09
2023-12-27T05:26:24.885Z,11.23
2023-12-27T05:31:21.967Z,11.25
2023-12-27T05:36:18.472Z,10.75
2023-12-27T05:41:15.010Z,10.98
2023-12-27T05:46:12.284Z,11.03
2023-12-27T05:51:08.920Z,11.01
2023-12-27T05:56:07.136Z,10.78
2023-12-27T06:01:03.902Z,10.77
2023-12-27T06:06:01.691Z,10.89
2023-12-27T06:10:59.443Z,10.67
2023-12-27T06:15:56.236Z,10.65
2023-12-27T06:20:53.162Z,10.89
2023-12-27T06:25:50.329Z,10.64
2023-12-27T06:30:47.785Z,10.65
2023-12-27T06:35:44.441Z,10.49
2023-12-27T06:40:41.205Z,10.71
2023-12-27T06:45:38.442Z,10.67
2023-12-27T06:50:43.731Z,10.79
2023-12-27T06:55:40.435Z,10.71
2023-12-27T07:00:39.010Z,10.85
2023-12-27T07:05:37.346Z,10.86
2023-12-27T07:10:33.892Z,11.00
2023-12-27T07:15:30.576Z,10.98
2023-12-27T07:20:27.149Z,11.15
2023-12-27T07:25:25.720Z,10.96
2023-12-27T07:30:22.421Z,10.98
2023-12-27T07:35:19.165Z,10.95
2023-12-27T07:40:16.440Z,11.09
2023-12-27T07:45:13.715Z,11.14
2023-12-27T07:50:10.510Z,11.30
2023-12-27T07:55:07.547Z,11.43
2023-12-27T08:00:07.634Z,11.49
2023-12-27T08:05:09.578Z,11.67
2023-12-27T08:10:06.921Z,11.96
2023-12-27T08:15:04.116Z,11.53
2023-12-27T08:20:04.798Z,11.65
2023-12-27T08:25:02.027Z,11.59
2023-12-27T08:29:59.085Z,11.86
2023-12-27T08:34:55.800Z,11.86
2023-12-27T08:39:52.425Z,12.18
2023-12-27T08:44:49.583Z,12.10
2023-12-27T08:49:46.208Z,12.04
2023-12-27T08:54:42.927Z,12.18
2023-12-27T08:59:39.490Z,12.34
2023-12-27T09:04:36.919Z,12.46
2023-12-27T09:09:33.588Z,12.65
2023-12-27T09:14:30.156Z,12.67
2023-12-27T09:19:26.781Z,12.86
2023-12-27T09:24:24.137Z,12.96
2023-12-27T09:29:21.278Z,12.85
2023-12-27T09:34:18.023Z,13.00
2023-12-27T09:39:15.088Z,12.92
2023-12-27T09:44:12.544Z,13.15
2023-12-27T09:49:09.868Z,13.10
2023-12-27T09:54:07.235Z,13.26
2023-12-27T09:59:06.523Z,13.33
2023-12-27T10:04:07.602Z,13.38
2023-12-27T10:09:05.788Z,13.57
2023-12-27T10:14:05.114Z,13.76
2023-12-27T10:19:01.848Z,13.70
2023-12-27T10:24:03.839Z,13.87
2023-12-27T10:29:01.293Z,14.10
2023-12-27T10:34:03.202Z,14.17
2023-12-27T10:39:03.077Z,14.12
2023-12-27T10:44:01.060Z,14.46
2023-12-27T10:49:01.723Z,14.24
2023-12-27T10:53:59.466Z,14.32
2023-12-27T10:58:56.199Z,14.46
2023-12-27T11:03:54.071Z,14.41
2023-12-27T11:08:52.903Z,14.63
2023-12-27T11:13:50.083Z,14.73
2023-12-27T11:18:47.338Z,14.63
2023-12-27T11:23:44.748Z,14.75
2023-12-27T11:28:42.441Z,14.88
2023-12-27T11:33:39.174Z,14.85
2023-12-27T11:38:37.160Z,15.13
2023-12-27T11:43:51.438Z,15.18
2023-12-27T11:48:48.157Z,15.12
2023-12-27T11:53:45.033Z,14.96
2023-12-27T11:58:41.714Z,14.92
2023-12-27T12:03:39.588Z,14.93
2023-12-27T12:08:41.462Z,15.01
2023-12-27T12:13:39.362Z,14.88
2023-12-27T12:18:37.629Z,14.95
2023-12-27T12:23:35.253Z,15.34
2023-12-27T12:28:31.879Z,15.12
2023-12-27T12:33:28.537Z,15.08
2023-12-27T12:38:25.157Z,15.46
2023-12-27T12:43:22.412Z,15.48
2023-12-27T12:48:19.279Z,15.09
2023-12-27T12:53:16.227Z,15.11
2023-12-27T12:58:12.945Z,15.22
2023-12-27T13:03:10.443Z,15.00
2023-12-27T13:08:07.378Z,15.17
2023-12-27T13:13:04.080Z,15.12
2023-12-27T13:18:01.057Z,15.01
2023-12-27T13:22:58.547Z,15.00
2023-12-27T13:28:02.722Z,15.07
2023-12-27T13:33:04.096Z,15.05
2023-12-27T13:38:01.645Z,15.04
2023-12-27T13:42:58.317Z,15.11
2023-12-27T13:47:55.071Z,15.05
2023-12-27T13:52:51.863Z,14.79
2023-12-27T13:57:49.830Z,14.87
2023-12-27T14:02:47.188Z,15.05
2023-12-27T14:07:43.864Z,14.71
2023-12-27T14:12:42.902Z,14.84
2023-12-27T14:17:41.003Z,14.62
2023-12-27T14:22:37.819Z,14.58
2023-12-27T14:27:34.672Z,14.51
2023-12-27T14:32:31.346Z,14.53
2023-12-27T14:37:28.539Z,14.41
2023-12-27T14:42:25.296Z,14.26
2023-12-27T14:47:21.938Z,14.14
2023-12-27T14:52:18.662Z,13.90
2023-12-27T14:57:20.859Z,14.04
2023-12-27T15:02:17.382Z,13.94
2023-12-27T15:07:13.963Z,13.94
2023-12-27T15:12:10.553Z,14.11
2023-12-27T15:17:07.836Z,14.06
2023-12-27T15:22:04.649Z,14.01
2023-12-27T15:27:01.126Z,13.92
2023-12-27T15:31:57.780Z,13.88
2023-12-27T15:36:55.108Z,13.87
2023-12-27T15:41:51.671Z,13.76
2023-12-27T15:46:48.285Z,13.72
2023-12-27T15:51:46.951Z,13.51
2023-12-27T15:56:45.467Z,13.44
2023-12-27T16:01:43.388Z,13.51
2023-12-27T16:06:40.862Z,13.52
2023-12-27T16:11:40.572Z,13.45
2023-12-27T16:16:38.140Z,13.23
2023-12-27T16:21:35.024Z,12.68
2023-12-27T16:26:31.840Z,12.85
2023-12-27T16:31:28.654Z,13.01
2023-12-27T16:36:26.282Z,13.13
2023-12-27T16:41:23.150Z,12.61
2023-12-27T16:46:19.781Z,12.88
2023-12-27T16:51:16.478Z,12.76
2023-12-27T16:56:15.477Z,12.78
2023-12-27T17:01:12.579Z,12.77
2023-12-27T17:06:09.959Z,12.42
2023-12-27T17:11:07.898Z,12.51
2023-12-27T17:16:05.942Z,12.30
2023-12-27T17:21:04.011Z,12.27
2023-12-27T17:26:00.600Z,12.25
2023-12-27T17:30:57.252Z,12.18
2023-12-27T17:35:56.064Z,12.16
2023-12-27T17:40:52.735Z,12.38
2023-12-27T17:45:49.622Z,12.03
2023-12-27T17:50:46.336Z,11.89
2023-12-27T17:55:44.128Z,11.61
2023-12-27T18:00:44.747Z,11.68
2023-12-27T18:05:42.349Z,11.63
2023-12-27T18:10:39.237Z,11.67
2023-12-27T18:15:38.413Z,11.59
2023-12-27T18:20:35.184Z,11.43
2023-12-27T18:25:31.821Z,11.71
2023-12-27T18:30:28.727Z,11.49
2023-12-27T18:35:26.094Z,11.50
2023-12-27T18:40:22.638Z,11.24
2023-12-27T18:45:19.289Z,11.30
2023-12-27T18:50:16.181Z,11.03
2023-12-27T18:55:13.630Z,11.19
2023-12-27T19:00:10.675Z,11.18
2023-12-27T19:05:07.689Z,10.90
2023-12-27T19:10:04.657Z,10.85
2023-12-27T19:15:03.333Z,10.78
2023-12-27T19:20:00.739Z,10.36
2023-12-27T19:24:57.589Z,10.10
2023-12-27T19:29:54.197Z,10.28
2023-12-27T19:34:51.578Z,10.29
2023-12-27T19:39:49.204Z,10.04
2023-12-27T19:44:45.905Z,10.07
2023-12-27T19:49:42.636Z,10.08
2023-12-27T19:54:40.543Z,10.34
2023-12-27T19:59:38.055Z,10.22
2023-12-27T20:04:34.737Z,10.11
2023-12-27T20:09:31.381Z,10.09
2023-12-27T20:14:28.625Z,10.13
2023-12-27T20:19:25.380Z,10.22
2023-12-27T20:24:27.850Z,10.39
2023-12-27T20:29:24.376Z,10.38
2023-12-27T20:34:21.812Z,10.57
2023-12-27T20:39:18.463Z,10.58
2023-12-27T20:44:15.082Z,10.75
2023-12-27T20:49:11.904Z,10.82
2023-12-27T20:54:09.502Z,10.78
2023-12-27T20:59:09.517Z,10.84
2023-12-27T21:04:09.142Z,10.92
2023-12-27T21:09:05.868Z,10.69
2023-12-27T21:14:03.142Z,10.52
2023-12-27T21:18:59.816Z,10.45
2023-12-27T21:23:59.534Z,10.56
2023-12-27T21:28:56.048Z,10.49
2023-12-27T21:33:54.402Z,10.21
2023-12-27T21:38:52.748Z,10.50
2023-12-27T21:43:49.667Z,10.41
2023-12-27T21:48:46.249Z,10.01
2023-12-27T21:53:43.555Z,10.34
2023-12-27T21:58:40.115Z,10.44
2023-12-27T22:03:36.773Z,9.98
2023-12-27T22:08:34.785Z,9.99
2023-12-27T22:13:33.183Z,10.13
2023-12-27T22:18:30.083Z,10.24
2023-12-27T22:23:27.062Z,10.06
2023-12-27T22:28:23.589Z,10.08
2023-12-27T22:33:20.982Z,9.86
2023-12-27T22:38:17.572Z,10.00
2023-12-27T22:43:14.030Z,10.07
2023-12-27T22:48:10.640Z,10.05
2023-12-27T22:53:07.979Z,10.22
2023-12-27T22:58:04.508Z,10.07
2023-12-27T23:03:01.045Z,10.18
2023-12-27T23:07:57.871Z,10.12
2023-12-27T23:12:55.394Z,9.79
2023-12-27T23:17:52.300Z,9.96
2023-12-27T23:22:48.889Z,10.27
2023-12-27T23:27:45.485Z,10.75
2023-12-27T23:32:48.432Z,10.94
2023-12-27T23:37:47.905Z,11.11
2023-12-27T23:42:45.121Z,11.04
2023-12-27T23:47:42.524Z,11.19
2023-12-27T23:52:39.164Z,11.32
2023-12-27T23:57:35.735Z,11.26
